Dallas Fort Worth International Airport
KDFW : now visible

Airfield :











YOU CAN JOIN US ON...

 
LOGIN :

Register | Disclaimer

   EN    FR    IT 

 









Legend :    VFR   Marginal VFR   IFR   Intensive IFR   Very Intensive IFR
Visi :
Ceiling :
>= 8 km
>= 3000ft
5 to 8 km
1000 to 3000 ft
1500m to 5 km
500 to 1000 ft
800 to 1500m
200 to 500 ft
< 800m
< 200 ft
Symbols :   Thunderstorms  Fog  Heavy snow  Heavy precipitations  Wind > 20 kt






- Airport Elevation : 607 ft
- IATA code : DFW


KDFW - Dallas Fort Worth International

CURRENT METAR :
  • 191653Z 08004KT 10SM SCT028 BKN050 BKN250 30/21 A2995 RMK AO2 SLP131 T03000206 $

EXPIRED METARs :
  • 191553Z 11004KT 10SM BKN019 BKN070 28/21 A2996 RMK AO2 SLP135 T02780211 $
  • 191506Z 00000KT 9SM BKN015 27/22 A2996 RMK AO2 T02670217 $
  • 191453Z 05004KT 8SM BKN012 27/22 A2996 RMK AO2 SLP137 T02670217 51008 $

TAF KDFW
Valid from the 19 at 18:00 until the 21 at 00:00 UTC


191721Z 1918/2024 11007KT P6SM SCT040
FM192300 16007KT P6SM SCT070 SCT250
KZFW FIR / North America



MET'MAP, your aeronautical weather chart ! - Copyright ORBIFLY December 2007 - Disclaimer

ORBIFLY MET'MAP TEAM :

Programming & Development : Alexandra Zaïnal
Original concept : Baudouin d'Aumeries
Technical & hardware support : Manuel Goepfert
Assistance : Marc-Olivier Méhu




SOURCES & CREDITS :

   NOAA       Earth
Advisory